Time,TemperatureF,DewpointF,PressureIn,WindDirection,WindDirectionDegrees,WindSpeedMPH,WindSpeedGustMPH,Humidity,HourlyPrecipIn,Conditions,Clouds,dailyrainin,SoftwareType,DateUTC
2013-01-10 00:00:00,24.7,13.9,29.85,SSW,195,5.0,10.0,63,0.00,,---,0.01,VWS V14.00,2013-01-10 08:00:00,
2013-01-10 00:05:00,24.7,14.3,29.85,South,191,5.0,7.0,64,0.00,,---,0.00,VWS V14.00,2013-01-10 08:05:00,
2013-01-10 00:10:00,24.5,14.4,29.85,South,191,4.0,7.0,65,0.00,,---,0.00,VWS V14.00,2013-01-10 08:10:00,
2013-01-10 00:15:00,24.5,14.4,29.84,SSW,193,3.0,7.0,65,0.00,,---,0.00,VWS V14.00,2013-01-10 08:15:00,
2013-01-10 00:20:00,24.5,14.4,29.84,South,188,7.0,7.0,65,0.00,,---,0.00,VWS V14.00,2013-01-10 08:20:00,
2013-01-10 00:25:00,24.5,14.1,29.84,South,189,2.0,5.0,64,0.00,,---,0.00,VWS V14.00,2013-01-10 08:25:00,
2013-01-10 00:30:00,24.4,14.0,29.86,South,189,1.0,5.0,64,0.00,,---,0.00,VWS V14.00,2013-01-10 08:30:00,
2013-01-10 00:35:00,24.4,14.3,29.86,South,186,6.0,10.0,65,0.00,,---,0.00,VWS V14.00,2013-01-10 08:35:00,
2013-01-10 00:40:00,24.4,14.0,29.86,South,186,3.0,10.0,64,0.00,,---,0.00,VWS V14.00,2013-01-10 08:40:00,
2013-01-10 00:46:00,24.2,13.8,29.86,South,191,7.0,10.0,64,0.00,,---,0.00,VWS V14.00,2013-01-10 08:46:00,
2013-01-10 00:51:00,24.1,14.1,29.86,South,191,5.0,10.0,65,0.00,,---,0.00,VWS V14.00,2013-01-10 08:51:00,
2013-01-10 00:56:00,23.9,13.9,29.86,South,191,6.0,7.0,65,0.00,,---,0.00,VWS V14.00,2013-01-10 08:56:00,
2013-01-10 01:01:00,23.8,14.8,29.86,SSW,192,5.0,11.0,68,0.00,,---,0.00,VWS V14.00,2013-01-10 09:01:00,
2013-01-10 01:06:00,23.6,14.9,29.86,SSW,192,5.0,7.0,69,0.00,,---,0.00,VWS V14.00,2013-01-10 09:06:00,
2013-01-10 01:11:00,23.5,14.5,29.86,SSW,192,6.0,7.0,68,0.00,,---,0.00,VWS V14.00,2013-01-10 09:11:00,
2013-01-10 01:16:00,23.5,14.5,29.86,South,186,5.0,7.0,68,0.00,,---,0.00,VWS V14.00,2013-01-10 09:16:00,
2013-01-10 01:21:00,23.3,15.0,29.86,South,186,3.0,7.0,70,0.00,,---,0.00,VWS V14.00,2013-01-10 09:21:00,
2013-01-10 01:26:00,23.2,14.2,29.86,South,185,5.0,8.0,68,0.00,,---,0.00,VWS V14.00,2013-01-10 09:26:00,
2013-01-10 01:31:00,23.2,14.2,29.88,SSW,192,5.0,6.0,68,0.00,,---,0.00,VWS V14.00,2013-01-10 09:31:00,
2013-01-10 01:36:00,23.3,14.3,29.88,SSW,192,5.0,9.0,68,0.00,,---,0.00,VWS V14.00,2013-01-10 09:36:00,
2013-01-10 01:41:00,23.2,13.9,29.88,SSW,192,2.0,5.0,67,0.00,,---,0.00,VWS V14.00,2013-01-10 09:41:00,
2013-01-10 01:46:00,23.2,13.9,29.88,South,188,5.0,7.0,67,0.00,,---,0.00,VWS V14.00,2013-01-10 09:46:00,
2013-01-10 01:51:00,23.3,13.3,29.88,South,188,5.0,7.0,65,0.00,,---,0.00,VWS V14.00,2013-01-10 09:51:00,
2013-01-10 01:56:00,23.3,14.0,29.88,South,191,10.0,10.0,67,0.00,,---,0.00,VWS V14.00,2013-01-10 09:56:00,
2013-01-10 02:02:00,23.2,13.9,29.88,South,186,5.0,6.0,67,0.00,,---,0.00,VWS V14.00,2013-01-10 10:02:00,
2013-01-10 02:07:00,23.2,13.9,29.88,South,189,3.0,6.0,67,0.00,,---,0.00,VWS V14.00,2013-01-10 10:07:00,
2013-01-10 02:12:00,23.0,13.7,29.88,South,189,2.0,3.0,67,0.00,,---,0.00,VWS V14.00,2013-01-10 10:12:00,
2013-01-10 02:17:00,22.9,13.6,29.88,South,191,4.0,7.0,67,0.00,,---,0.00,VWS V14.00,2013-01-10 10:17:00,
2013-01-10 02:22:00,22.7,13.7,29.88,South,191,3.0,5.0,68,0.00,,---,0.00,VWS V14.00,2013-01-10 10:22:00,
2013-01-10 02:27:00,22.5,13.6,29.88,South,189,5.0,7.0,68,0.00,,---,0.00,VWS V14.00,2013-01-10 10:27:00,
2013-01-10 02:32:00,22.4,13.1,29.89,SSW,192,5.0,5.0,67,0.00,,---,0.00,VWS V14.00,2013-01-10 10:32:00,
2013-01-10 02:37:00,22.4,13.1,29.89,SSW,192,5.0,6.0,67,0.00,,---,0.00,VWS V14.00,2013-01-10 10:37:00,
2013-01-10 02:42:00,22.7,12.7,29.89,South,188,2.0,5.0,65,0.00,,---,0.00,VWS V14.00,2013-01-10 10:42:00,
2013-01-10 02:47:00,22.5,12.2,29.89,South,188,3.0,5.0,64,0.00,,---,0.00,VWS V14.00,2013-01-10 10:47:00,
2013-01-10 02:52:00,22.7,12.7,29.89,South,191,5.0,5.0,65,0.00,,---,0.00,VWS V14.00,2013-01-10 10:52:00,
2013-01-10 02:57:00,22.7,12.7,29.89,South,189,6.0,6.0,65,0.00,,---,0.00,VWS V14.00,2013-01-10 10:57:00,
2013-01-10 03:02:00,22.5,12.5,29.89,South,188,1.0,2.0,65,0.00,,---,0.00,VWS V14.00,2013-01-10 11:02:00,
2013-01-10 03:08:00,22.4,12.4,29.89,South,188,0.0,3.0,65,0.00,,---,0.00,VWS V14.00,2013-01-10 11:08:00,
2013-01-10 03:13:00,22.1,13.2,29.89,South,188,0.0,2.0,68,0.00,,---,0.00,VWS V14.00,2013-01-10 11:13:00,
2013-01-10 03:18:00,21.8,12.5,29.90,South,188,0.0,2.0,67,0.00,,---,0.00,VWS V14.00,2013-01-10 11:18:00,
2013-01-10 03:23:00,21.6,12.0,29.90,South,188,2.0,5.0,66,0.00,,---,0.00,VWS V14.00,2013-01-10 11:23:00,
2013-01-10 03:28:00,21.1,11.9,29.90,South,188,1.0,5.0,67,0.00,,---,0.00,VWS V14.00,2013-01-10 11:28:00,
2013-01-10 03:33:00,20.8,11.9,29.91,South,188,2.0,3.0,68,0.00,,---,0.00,VWS V14.00,2013-01-10 11:33:00,
2013-01-10 03:38:00,20.8,11.2,29.91,South,191,2.0,6.0,66,0.00,,---,0.00,VWS V14.00,2013-01-10 11:38:00,
2013-01-10 03:43:00,21.1,11.5,29.91,South,191,4.0,4.0,66,0.00,,---,0.00,VWS V14.00,2013-01-10 11:43:00,
2013-01-10 03:48:00,21.9,12.3,29.91,SSW,198,8.0,11.0,66,0.00,,---,0.00,VWS V14.00,2013-01-10 11:48:00,
2013-01-10 03:53:00,21.9,12.0,29.91,SSW,192,6.0,8.0,65,0.00,,---,0.00,VWS V14.00,2013-01-10 11:53:00,
2013-01-10 03:58:00,21.9,12.0,29.91,South,189,8.0,8.0,65,0.00,,---,0.00,VWS V14.00,2013-01-10 11:58:00,
2013-01-10 04:03:00,22.1,12.5,29.90,SSW,192,8.0,8.0,66,0.00,,---,0.00,VWS V14.00,2013-01-10 12:03:00,
2013-01-10 04:08:00,22.1,12.5,29.90,South,186,7.0,8.0,66,0.00,,---,0.00,VWS V14.00,2013-01-10 12:08:00,
2013-01-10 04:13:00,22.1,12.5,29.90,South,189,5.0,7.0,66,0.00,,---,0.00,VWS V14.00,2013-01-10 12:13:00,
2013-01-10 04:18:00,22.1,12.1,29.90,SSW,193,6.0,10.0,65,0.00,,---,0.00,VWS V14.00,2013-01-10 12:18:00,
2013-01-10 04:23:00,22.4,12.4,29.90,SSW,195,6.0,13.0,65,0.00,,---,0.00,VWS V14.00,2013-01-10 12:23:00,
2013-01-10 04:28:00,22.4,12.8,29.90,SSW,195,8.0,13.0,66,0.00,,---,0.00,VWS V14.00,2013-01-10 12:28:00,
2013-01-10 04:34:00,22.5,12.9,29.89,South,191,7.0,7.0,66,0.00,,---,0.00,VWS V14.00,2013-01-10 12:34:00,
2013-01-10 04:39:00,22.7,12.7,29.89,South,182,5.0,9.0,65,0.00,,---,0.00,VWS V14.00,2013-01-10 12:39:00,
2013-01-10 04:44:00,22.9,12.9,29.89,SSW,192,7.0,8.0,65,0.00,,---,0.00,VWS V14.00,2013-01-10 12:44:00,
2013-01-10 04:49:00,23.0,13.0,29.89,SSW,196,7.0,12.0,65,0.00,,---,0.00,VWS V14.00,2013-01-10 12:49:00,
2013-01-10 04:54:00,23.0,13.7,29.89,SSW,196,5.0,10.0,67,0.00,,---,0.00,VWS V14.00,2013-01-10 12:54:00,
2013-01-10 04:59:00,23.2,13.9,29.89,SSW,198,5.0,12.0,67,0.00,,---,0.00,VWS V14.00,2013-01-10 12:59:00,
2013-01-10 05:04:00,23.2,13.5,29.90,SSW,195,4.0,7.0,66,0.00,,---,0.00,VWS V14.00,2013-01-10 13:04:00,
2013-01-10 05:09:00,23.0,13.4,29.90,SSW,198,7.0,7.0,66,0.00,,---,0.00,VWS V14.00,2013-01-10 13:09:00,
2013-01-10 05:14:00,23.0,13.4,29.90,SSW,199,2.0,7.0,66,0.00,,---,0.00,VWS V14.00,2013-01-10 13:14:00,
2013-01-10 05:19:00,22.9,13.3,29.91,South,189,5.0,8.0,66,0.00,,---,0.00,VWS V14.00,2013-01-10 13:19:00,
2013-01-10 05:24:00,23.0,13.4,29.91,South,188,3.0,5.0,66,0.00,,---,0.00,VWS V14.00,2013-01-10 13:24:00,
2013-01-10 05:29:00,22.9,13.9,29.91,South,185,7.0,7.0,68,0.00,,---,0.00,VWS V14.00,2013-01-10 13:29:00,
2013-01-10 05:34:00,22.9,13.6,29.91,SSW,200,2.0,7.0,67,0.00,,---,0.00,VWS V14.00,2013-01-10 13:34:00,
2013-01-10 05:39:00,22.5,14.2,29.91,SSW,196,2.0,7.0,70,0.00,,---,0.00,VWS V14.00,2013-01-10 13:39:00,
2013-01-10 05:44:00,22.5,13.9,29.91,SSW,193,6.0,6.0,69,0.00,,---,0.00,VWS V14.00,2013-01-10 13:44:00,
2013-01-10 05:49:00,22.5,13.9,29.91,SSW,195,5.0,10.0,69,0.00,,---,0.00,VWS V14.00,2013-01-10 13:49:00,
2013-01-10 05:54:00,22.7,13.7,29.91,SSW,195,5.0,10.0,68,0.00,,---,0.00,VWS V14.00,2013-01-10 13:54:00,
2013-01-10 05:59:00,22.5,13.6,29.91,SSW,192,5.0,10.0,68,0.00,,---,0.00,VWS V14.00,2013-01-10 13:59:00,
2013-01-10 06:05:00,22.5,13.2,29.92,SSW,192,7.0,10.0,67,0.00,,---,0.00,VWS V14.00,2013-01-10 14:05:00,
2013-01-10 06:10:00,22.9,13.6,29.92,SSW,198,11.0,12.0,67,0.00,,---,0.00,VWS V14.00,2013-01-10 14:10:00,
2013-01-10 06:15:00,22.7,13.4,29.92,SSW,198,4.0,6.0,67,0.00,,---,0.00,VWS V14.00,2013-01-10 14:15:00,
2013-01-10 06:20:00,22.5,13.9,29.92,South,191,7.0,12.0,69,0.00,,---,0.00,VWS V14.00,2013-01-10 14:20:00,
2013-01-10 06:25:00,22.5,13.6,29.92,SSW,199,5.0,10.0,68,0.00,,---,0.00,VWS V14.00,2013-01-10 14:25:00,
2013-01-10 06:30:00,22.4,13.1,29.92,SSW,198,2.0,10.0,67,0.00,,---,0.00,VWS V14.00,2013-01-10 14:30:00,
2013-01-10 06:35:00,22.4,13.1,29.94,SSW,193,5.0,7.0,67,0.00,,---,0.00,VWS V14.00,2013-01-10 14:35:00,
2013-01-10 06:40:00,22.5,13.6,29.94,SSW,193,5.0,10.0,68,0.00,,---,0.00,VWS V14.00,2013-01-10 14:40:00,
2013-01-10 06:45:00,22.4,12.8,29.94,SSW,192,5.0,5.0,66,0.00,,---,0.00,VWS V14.00,2013-01-10 14:45:00,
2013-01-10 06:50:00,22.2,12.6,29.94,SSW,200,7.0,8.0,66,0.00,,---,0.00,VWS V14.00,2013-01-10 14:50:00,
2013-01-10 06:55:00,22.1,13.2,29.94,SSW,195,2.0,7.0,68,0.00,,---,0.00,VWS V14.00,2013-01-10 14:55:00,
2013-01-10 07:00:00,21.9,13.3,29.94,SSW,200,6.0,7.0,69,0.00,,---,0.00,VWS V14.00,2013-01-10 15:00:00,
2013-01-10 07:05:00,21.8,13.2,29.94,SSW,200,3.0,5.0,69,0.00,,---,0.00,VWS V14.00,2013-01-10 15:05:00,
2013-01-10 07:10:00,21.8,13.5,29.94,South,189,5.0,7.0,70,0.00,,---,0.00,VWS V14.00,2013-01-10 15:10:00,
2013-01-10 07:15:00,22.1,13.8,29.94,SSW,192,5.0,10.0,70,0.00,,---,0.00,VWS V14.00,2013-01-10 15:15:00,
2013-01-10 07:20:00,22.2,12.6,29.94,South,189,5.0,10.0,66,0.00,,---,0.00,VWS V14.00,2013-01-10 15:20:00,
2013-01-10 07:26:00,22.5,13.6,29.94,SSW,195,10.0,11.0,68,0.00,,---,0.00,VWS V14.00,2013-01-10 15:26:00,
2013-01-10 07:31:00,22.5,13.2,29.94,SSW,196,5.0,11.0,67,0.00,,---,0.00,VWS V14.00,2013-01-10 15:31:00,
2013-01-10 07:36:00,22.4,13.1,29.94,SSW,202,6.0,8.0,67,0.00,,---,0.00,VWS V14.00,2013-01-10 15:36:00,
2013-01-10 07:41:00,22.9,13.3,29.94,SSW,195,7.0,12.0,66,0.00,,---,0.00,VWS V14.00,2013-01-10 15:41:00,
2013-01-10 07:46:00,22.9,12.6,29.95,SSW,195,5.0,8.0,64,0.00,,---,0.00,VWS V14.00,2013-01-10 15:46:00,
2013-01-10 07:51:00,22.9,12.9,29.95,SSW,198,7.0,9.0,65,0.00,,---,0.00,VWS V14.00,2013-01-10 15:51:00,
2013-01-10 07:56:00,22.7,13.4,29.95,SSW,196,6.0,10.0,67,0.00,,---,0.00,VWS V14.00,2013-01-10 15:56:00,
2013-01-10 08:01:00,23.0,13.4,29.96,SSW,198,6.0,7.0,66,0.00,,---,0.00,VWS V14.00,2013-01-10 16:01:00,
2013-01-10 08:06:00,23.3,13.3,29.96,SSW,198,5.0,11.0,65,0.00,,---,0.00,VWS V14.00,2013-01-10 16:06:00,
2013-01-10 08:11:00,23.5,13.5,29.96,SSW,199,9.0,9.0,65,0.00,,---,0.00,VWS V14.00,2013-01-10 16:11:00,
2013-01-10 08:16:00,23.6,13.2,29.96,South,189,3.0,9.0,64,0.00,,---,0.00,VWS V14.00,2013-01-10 16:16:00,
2013-01-10 08:21:00,23.5,13.5,29.96,South,191,3.0,7.0,65,0.00,,---,0.00,VWS V14.00,2013-01-10 16:21:00,
2013-01-10 08:26:00,23.6,13.6,29.96,South,189,2.0,7.0,65,0.00,,---,0.00,VWS V14.00,2013-01-10 16:26:00,
2013-01-10 08:32:00,23.8,13.1,29.97,SSW,193,5.0,5.0,63,0.00,,---,0.00,VWS V14.00,2013-01-10 16:32:00,
2013-01-10 08:37:00,23.9,12.8,29.97,South,188,5.0,10.0,62,0.00,,---,0.00,VWS V14.00,2013-01-10 16:37:00,
2013-01-10 08:42:00,23.8,13.4,29.97,SSW,196,4.0,7.0,64,0.00,,---,0.00,VWS V14.00,2013-01-10 16:42:00,
2013-01-10 08:47:00,23.9,13.1,29.97,SSW,196,5.0,11.0,63,0.00,,---,0.00,VWS V14.00,2013-01-10 16:47:00,
2013-01-10 08:52:00,23.9,13.5,29.97,SSW,192,7.0,7.0,64,0.00,,---,0.00,VWS V14.00,2013-01-10 16:52:00,
2013-01-10 08:57:00,23.9,13.1,29.97,SSW,202,6.0,8.0,63,0.00,,---,0.00,VWS V14.00,2013-01-10 16:57:00,
2013-01-10 09:02:00,23.9,13.9,29.97,South,188,5.0,7.0,65,0.00,,---,0.00,VWS V14.00,2013-01-10 17:02:00,
2013-01-10 09:07:00,23.9,14.2,29.97,South,174,9.0,12.0,66,0.00,,---,0.00,VWS V14.00,2013-01-10 17:07:00,
2013-01-10 09:12:00,24.1,14.1,29.97,SSW,203,7.0,10.0,65,0.00,,---,0.00,VWS V14.00,2013-01-10 17:12:00,
2013-01-10 09:17:00,24.2,13.8,29.96,South,191,7.0,14.0,64,0.00,,---,0.00,VWS V14.00,2013-01-10 17:17:00,
2013-01-10 09:22:00,24.4,14.3,29.96,SSW,199,6.0,16.0,65,0.00,,---,0.00,VWS V14.00,2013-01-10 17:22:00,
2013-01-10 09:27:00,24.5,14.1,29.96,South,191,7.0,16.0,64,0.00,,---,0.00,VWS V14.00,2013-01-10 17:27:00,
2013-01-10 09:32:00,24.7,15.0,29.96,SSW,200,8.0,10.0,66,0.00,,---,0.00,VWS V14.00,2013-01-10 17:32:00,
2013-01-10 09:37:00,25.0,14.2,29.96,South,188,8.0,13.0,63,0.00,,---,0.00,VWS V14.00,2013-01-10 17:37:00,
2013-01-10 09:42:00,25.0,14.9,29.96,South,189,6.0,8.0,65,0.00,,---,0.00,VWS V14.00,2013-01-10 17:42:00,
2013-01-10 09:47:00,25.1,14.6,29.96,South,175,9.0,12.0,64,0.00,,---,0.00,VWS V14.00,2013-01-10 17:47:00,
2013-01-10 09:52:00,25.1,14.6,29.96,SSW,192,8.0,8.0,64,0.00,,---,0.00,VWS V14.00,2013-01-10 17:52:00,
2013-01-10 09:57:00,25.1,14.6,29.96,South,189,7.0,13.0,64,0.00,,---,0.00,VWS V14.00,2013-01-10 17:57:00,
2013-01-10 10:02:00,25.3,14.1,29.96,SSW,198,10.0,14.0,62,0.00,,---,0.00,VWS V14.00,2013-01-10 18:02:00,
2013-01-10 10:07:00,25.4,14.6,29.96,South,184,6.0,14.0,63,0.00,,---,0.00,VWS V14.00,2013-01-10 18:07:00,
2013-01-10 10:13:00,25.6,14.4,29.96,South,188,6.0,13.0,62,0.00,,---,0.00,VWS V14.00,2013-01-10 18:13:00,
2013-01-10 10:18:00,25.6,14.4,29.97,SSW,199,6.0,13.0,62,0.00,,---,0.00,VWS V14.00,2013-01-10 18:18:00,
2013-01-10 10:23:00,25.6,14.8,29.97,SSW,192,11.0,12.0,63,0.00,,---,0.00,VWS V14.00,2013-01-10 18:23:00,
2013-01-10 10:28:00,25.6,14.8,29.97,SSW,198,5.0,16.0,63,0.00,,---,0.00,VWS V14.00,2013-01-10 18:28:00,
2013-01-10 10:33:00,25.6,14.8,29.97,SSW,203,9.0,10.0,63,0.00,,---,0.00,VWS V14.00,2013-01-10 18:33:00,
2013-01-10 10:38:00,25.4,14.9,29.97,South,181,5.0,17.0,64,0.00,,---,0.00,VWS V14.00,2013-01-10 18:38:00,
2013-01-10 10:43:00,25.6,14.8,29.97,SSW,202,4.0,8.0,63,0.00,,---,0.00,VWS V14.00,2013-01-10 18:43:00,
2013-01-10 10:48:00,25.6,14.4,29.97,South,182,5.0,12.0,62,0.00,,---,0.00,VWS V14.00,2013-01-10 18:48:00,
2013-01-10 10:53:00,25.6,15.1,29.97,SSW,199,8.0,10.0,64,0.00,,---,0.00,VWS V14.00,2013-01-10 18:53:00,
2013-01-10 10:58:00,25.6,15.5,29.97,SSW,192,7.0,13.0,65,0.00,,---,0.00,VWS V14.00,2013-01-10 18:58:00,
2013-01-10 11:03:00,25.6,15.5,29.96,SSW,212,3.0,12.0,65,0.00,,---,0.00,VWS V14.00,2013-01-10 19:03:00,
2013-01-10 11:08:00,25.7,15.9,29.96,SSW,196,3.0,12.0,66,0.00,,---,0.00,VWS V14.00,2013-01-10 19:08:00,
2013-01-10 11:13:00,25.8,15.3,29.96,South,191,5.0,7.0,64,0.00,,---,0.00,VWS V14.00,2013-01-10 19:13:00,
2013-01-10 11:18:00,25.8,15.7,29.96,SW,222,7.0,11.0,65,0.00,,---,0.00,VWS V14.00,2013-01-10 19:18:00,
2013-01-10 11:23:00,26.0,15.5,29.96,SSW,192,7.0,7.0,64,0.00,,---,0.00,VWS V14.00,2013-01-10 19:23:00,
2013-01-10 11:28:00,25.8,15.7,29.96,SSW,192,9.0,16.0,65,0.00,,---,0.00,VWS V14.00,2013-01-10 19:28:00,
2013-01-10 11:33:00,25.8,15.7,29.95,South,182,7.0,14.0,65,0.00,,---,0.00,VWS V14.00,2013-01-10 19:33:00,
2013-01-10 11:39:00,25.8,15.7,29.95,South,189,10.0,14.0,65,0.00,,---,0.00,VWS V14.00,2013-01-10 19:39:00,
2013-01-10 11:44:00,26.0,16.2,29.95,South,186,5.0,10.0,66,0.00,,---,0.00,VWS V14.00,2013-01-10 19:44:00,
2013-01-10 11:49:00,26.1,16.3,29.94,SW,230,7.0,12.0,66,0.00,,---,0.00,VWS V14.00,2013-01-10 19:49:00,
2013-01-10 11:54:00,26.1,16.0,29.94,SSW,206,3.0,8.0,65,0.00,,---,0.00,VWS V14.00,2013-01-10 19:54:00,
2013-01-10 11:59:00,26.3,16.9,29.94,SSW,195,3.0,10.0,67,0.00,,---,0.00,VWS V14.00,2013-01-10 19:59:00,
2013-01-10 12:04:00,26.4,16.9,29.94,SSW,200,7.0,12.0,67,0.00,,---,0.00,VWS V14.00,2013-01-10 20:04:00,
2013-01-10 12:10:00,26.6,17.1,29.94,SSW,195,3.0,12.0,67,0.00,,---,0.00,VWS V14.00,2013-01-10 20:10:00,
2013-01-10 12:15:00,26.9,17.4,29.94,SSW,195,3.0,7.0,67,0.00,,---,0.00,VWS V14.00,2013-01-10 20:15:00,
2013-01-10 12:20:00,27.2,17.7,29.94,SSW,202,6.0,10.0,67,0.00,,---,0.00,VWS V14.00,2013-01-10 20:20:00,
2013-01-10 12:25:00,27.3,17.5,29.94,SSW,193,3.0,5.0,66,0.00,,---,0.00,VWS V14.00,2013-01-10 20:25:00,
2013-01-10 12:31:00,27.3,17.8,29.93,South,188,3.0,7.0,67,0.00,,---,0.00,VWS V14.00,2013-01-10 20:31:00,
2013-01-10 12:36:00,27.5,18.0,29.93,South,188,0.0,6.0,67,0.00,,---,0.00,VWS V14.00,2013-01-10 20:36:00,
2013-01-10 12:41:00,27.3,17.5,29.93,South,189,2.0,6.0,66,0.00,,---,0.00,VWS V14.00,2013-01-10 20:41:00,
2013-01-10 12:46:00,27.5,18.0,29.92,South,189,2.0,5.0,67,0.00,,---,0.00,VWS V14.00,2013-01-10 20:46:00,
2013-01-10 12:51:00,27.5,18.0,29.92,South,189,1.0,6.0,67,0.00,,---,0.00,VWS V14.00,2013-01-10 20:51:00,
2013-01-10 12:56:00,27.8,18.3,29.92,South,189,3.0,6.0,67,0.00,,---,0.00,VWS V14.00,2013-01-10 20:56:00,
2013-01-10 13:01:00,28.4,18.1,29.92,South,189,1.0,2.0,65,0.00,,---,0.00,VWS V14.00,2013-01-10 21:01:00,
2013-01-10 13:06:00,29.3,19.0,29.92,South,189,0.0,2.0,65,0.00,,---,0.00,VWS V14.00,2013-01-10 21:06:00,
2013-01-10 13:12:00,30.3,18.9,29.92,SSW,200,0.0,0.0,62,0.00,,---,0.00,VWS V14.00,2013-01-10 21:12:00,
2013-01-10 13:17:00,31.2,19.0,29.91,SSW,200,0.0,3.0,60,0.00,,---,0.00,VWS V14.00,2013-01-10 21:17:00,
2013-01-10 13:22:00,31.8,18.7,29.91,SSW,202,0.0,2.0,58,0.00,,---,0.00,VWS V14.00,2013-01-10 21:22:00,
2013-01-10 13:27:00,31.8,18.3,29.91,SSW,202,0.0,3.0,57,0.00,,---,0.00,VWS V14.00,2013-01-10 21:27:00,
2013-01-10 13:32:00,32.1,18.2,29.91,SSW,202,0.0,0.0,56,0.00,,---,0.00,VWS V14.00,2013-01-10 21:32:00,
2013-01-10 13:37:00,32.1,18.6,29.91,NW,306,0.0,5.0,57,0.00,,---,0.00,VWS V14.00,2013-01-10 21:37:00,
2013-01-10 13:42:00,31.6,17.3,29.91,SSW,212,0.0,3.0,55,0.00,,---,0.00,VWS V14.00,2013-01-10 21:42:00,
2013-01-10 13:47:00,31.9,15.8,29.91,SSW,210,2.0,5.0,51,0.00,,---,0.00,VWS V14.00,2013-01-10 21:47:00,
2013-01-10 13:52:00,31.3,17.0,29.91,SSW,205,2.0,5.0,55,0.00,,---,0.00,VWS V14.00,2013-01-10 21:52:00,
2013-01-10 13:57:00,31.6,16.5,29.91,WSW,239,0.0,5.0,53,0.00,,---,0.00,VWS V14.00,2013-01-10 21:57:00,
2013-01-10 14:03:00,31.5,15.5,29.91,SSW,193,0.0,5.0,51,0.00,,---,0.00,VWS V14.00,2013-01-10 22:03:00,
2013-01-10 14:08:00,31.2,15.2,29.91,South,191,2.0,5.0,51,0.00,,---,0.00,VWS V14.00,2013-01-10 22:08:00,
2013-01-10 14:13:00,32.1,16.0,29.91,SSW,192,0.0,2.0,51,0.00,,---,0.00,VWS V14.00,2013-01-10 22:13:00,
2013-01-10 14:18:00,32.9,16.8,29.90,SSW,200,0.0,2.0,51,0.00,,---,0.00,VWS V14.00,2013-01-10 22:18:00,
2013-01-10 14:23:00,34.1,17.4,29.90,SSW,200,0.0,0.0,50,0.00,,---,0.00,VWS V14.00,2013-01-10 22:23:00,
2013-01-10 14:28:00,34.6,17.4,29.90,SSW,210,0.0,3.0,49,0.00,,---,0.00,VWS V14.00,2013-01-10 22:28:00,
2013-01-10 14:33:00,34.6,16.9,29.89,SSW,210,0.0,0.0,48,0.00,,---,0.00,VWS V14.00,2013-01-10 22:33:00,
2013-01-10 14:38:00,34.1,16.0,29.89,WNW,296,0.0,3.0,47,0.00,,---,0.00,VWS V14.00,2013-01-10 22:38:00,
2013-01-10 14:43:00,33.8,17.6,29.89,WNW,296,0.0,0.0,51,0.00,,---,0.00,VWS V14.00,2013-01-10 22:43:00,
2013-01-10 14:49:00,33.5,14.4,29.90,NW,304,2.0,2.0,45,0.00,,---,0.00,VWS V14.00,2013-01-10 22:49:00,
2013-01-10 14:54:00,33.5,9.4,29.90,NW,305,1.0,3.0,36,0.00,,---,0.00,VWS V14.00,2013-01-10 22:54:00,
2013-01-10 14:59:00,33.4,9.3,29.90,WNW,289,0.0,7.0,36,0.00,,---,0.00,VWS V14.00,2013-01-10 22:59:00,
2013-01-10 15:04:00,32.9,10.1,29.91,North,354,0.0,6.0,38,0.00,,---,0.00,VWS V14.00,2013-01-10 23:04:00,
2013-01-10 15:09:00,32.5,10.9,29.91,NNE,18,1.0,6.0,40,0.00,,---,0.00,VWS V14.00,2013-01-10 23:09:00,
2013-01-10 15:14:00,32.2,11.7,29.91,NNE,18,0.0,2.0,42,0.00,,---,0.00,VWS V14.00,2013-01-10 23:14:00,
2013-01-10 15:19:00,32.4,12.4,29.92,NNW,329,0.0,4.0,43,0.00,,---,0.00,VWS V14.00,2013-01-10 23:19:00,
2013-01-10 15:25:00,32.2,10.0,29.92,NNW,329,5.0,8.0,39,0.00,,---,0.00,VWS V14.00,2013-01-10 23:25:00,
2013-01-10 15:30:00,32.1,9.9,29.92,NW,326,0.0,8.0,39,0.00,,---,0.00,VWS V14.00,2013-01-10 23:30:00,
2013-01-10 15:35:00,31.9,8.0,29.93,NNW,336,2.0,6.0,36,0.00,,---,0.00,VWS V14.00,2013-01-10 23:35:00,
2013-01-10 15:40:00,31.8,7.3,29.93,NW,305,1.0,6.0,35,0.00,,---,0.00,VWS V14.00,2013-01-10 23:40:00,
2013-01-10 15:45:00,31.5,6.4,29.93,North,359,1.0,5.0,34,0.00,,---,0.00,VWS V14.00,2013-01-10 23:45:00,
2013-01-10 15:50:00,31.3,7.5,29.93,North,359,0.0,5.0,36,0.00,,---,0.00,VWS V14.00,2013-01-10 23:50:00,
2013-01-10 15:55:00,31.0,9.0,29.93,North,359,3.0,4.0,39,0.00,,---,0.00,VWS V14.00,2013-01-10 23:55:00,
2013-01-10 16:00:00,30.7,9.8,29.94,North,359,0.0,4.0,41,0.00,,---,0.00,VWS V14.00,2013-01-11 00:00:00,
2013-01-10 16:06:00,30.4,10.1,29.94,North,356,0.0,1.0,42,0.00,,---,0.00,VWS V14.00,2013-01-11 00:06:00,
2013-01-10 16:11:00,30.3,10.5,29.94,North,357,0.0,2.0,43,0.00,,---,0.00,VWS V14.00,2013-01-11 00:11:00,
2013-01-10 16:16:00,30.0,11.2,29.95,North,357,0.0,0.0,45,0.00,,---,0.00,VWS V14.00,2013-01-11 00:16:00,
2013-01-10 16:21:00,29.8,11.1,29.95,North,357,0.0,1.0,45,0.00,,---,0.00,VWS V14.00,2013-01-11 00:21:00,
2013-01-10 16:26:00,29.5,11.8,29.95,North,357,0.0,0.0,47,0.00,,---,0.00,VWS V14.00,2013-01-11 00:26:00,
2013-01-10 16:31:00,29.3,11.6,29.95,North,357,0.0,0.0,47,0.00,,---,0.00,VWS V14.00,2013-01-11 00:31:00,
2013-01-10 16:36:00,29.1,11.9,29.95,North,357,0.0,0.0,48,0.00,,---,0.00,VWS V14.00,2013-01-11 00:36:00,
2013-01-10 16:42:00,28.7,12.4,29.95,North,357,0.0,0.0,50,0.00,,---,0.00,VWS V14.00,2013-01-11 00:42:00,
2013-01-10 16:47:00,28.1,11.9,29.96,North,357,0.0,0.0,50,0.00,,---,0.00,VWS V14.00,2013-01-11 00:47:00,
2013-01-10 16:52:00,27.8,11.6,29.96,North,357,0.0,0.0,50,0.00,,---,0.00,VWS V14.00,2013-01-11 00:52:00,
2013-01-10 16:57:00,27.5,10.4,29.96,North,357,0.0,0.0,48,0.00,,---,0.00,VWS V14.00,2013-01-11 00:57:00,
2013-01-10 17:02:00,27.0,12.2,29.97,North,357,0.0,0.0,53,0.00,,---,0.00,VWS V14.00,2013-01-11 01:02:00,
2013-01-10 17:07:00,26.7,11.4,29.97,North,357,0.0,0.0,52,0.00,,---,0.00,VWS V14.00,2013-01-11 01:07:00,
2013-01-10 17:12:00,26.4,11.6,29.97,North,357,0.0,0.0,53,0.00,,---,0.00,VWS V14.00,2013-01-11 01:12:00,
2013-01-10 17:18:00,26.3,11.5,29.98,North,357,0.0,1.0,53,0.00,,---,0.00,VWS V14.00,2013-01-11 01:18:00,
2013-01-10 17:23:00,25.7,12.6,29.98,North,357,0.0,0.0,57,0.00,,---,0.00,VWS V14.00,2013-01-11 01:23:00,
2013-01-10 17:28:00,25.0,12.7,29.98,North,357,0.0,0.0,59,0.00,,---,0.00,VWS V14.00,2013-01-11 01:28:00,
2013-01-10 17:33:00,24.1,11.5,29.98,North,357,1.0,1.0,58,0.00,,---,0.00,VWS V14.00,2013-01-11 01:33:00,
2013-01-10 17:38:00,23.3,11.1,29.98,North,357,0.0,2.0,59,0.00,,---,0.00,VWS V14.00,2013-01-11 01:38:00,
2013-01-10 17:43:00,23.2,11.0,29.98,North,357,0.0,0.0,59,0.00,,---,0.00,VWS V14.00,2013-01-11 01:43:00,
2013-01-10 17:49:00,22.7,11.6,29.99,North,357,0.0,0.0,62,0.00,,---,0.00,VWS V14.00,2013-01-11 01:49:00,
2013-01-10 17:54:00,21.6,10.6,29.99,North,357,0.0,0.0,62,0.00,,---,0.00,VWS V14.00,2013-01-11 01:54:00,
2013-01-10 17:59:00,20.8,10.6,29.99,North,357,0.0,1.0,64,0.00,,---,0.00,VWS V14.00,2013-01-11 01:59:00,
2013-01-10 18:04:00,20.5,10.3,30.00,North,357,0.0,1.0,64,0.00,,---,0.00,VWS V14.00,2013-01-11 02:04:00,
2013-01-10 18:09:00,20.5,10.3,30.00,North,357,0.0,1.0,64,0.00,,---,0.00,VWS V14.00,2013-01-11 02:09:00,
2013-01-10 18:14:00,21.1,10.8,30.00,North,357,0.0,0.0,64,0.00,,---,0.00,VWS V14.00,2013-01-11 02:14:00,
2013-01-10 18:19:00,20.2,10.3,30.02,North,356,0.0,2.0,65,0.00,,---,0.00,VWS V14.00,2013-01-11 02:19:00,
2013-01-10 18:25:00,19.4,9.9,30.02,North,353,0.0,2.0,66,0.00,,---,0.00,VWS V14.00,2013-01-11 02:25:00,
2013-01-10 18:30:00,19.1,9.6,30.02,North,353,0.0,2.0,66,0.00,,---,0.00,VWS V14.00,2013-01-11 02:30:00,
2013-01-10 18:35:00,18.6,9.1,30.02,North,353,1.0,2.0,66,0.00,,---,0.00,VWS V14.00,2013-01-11 02:35:00,
2013-01-10 18:41:00,18.1,9.3,30.02,North,353,0.0,2.0,68,0.00,,---,0.00,VWS V14.00,2013-01-11 02:41:00,
2013-01-10 18:46:00,18.3,9.5,30.03,North,353,0.0,0.0,68,0.00,,---,0.00,VWS V14.00,2013-01-11 02:46:00,
2013-01-10 18:51:00,18.4,9.6,30.03,North,353,0.0,0.0,68,0.00,,---,0.00,VWS V14.00,2013-01-11 02:51:00,
2013-01-10 18:57:00,17.8,8.7,30.03,West,280,0.0,3.0,67,0.00,,---,0.00,VWS V14.00,2013-01-11 02:57:00,
2013-01-10 19:02:00,17.8,8.7,30.03,West,280,1.0,2.0,67,0.00,,---,0.00,VWS V14.00,2013-01-11 03:02:00,
2013-01-10 19:07:00,18.1,9.7,30.03,West,280,0.0,2.0,69,0.00,,---,0.00,VWS V14.00,2013-01-11 03:07:00,
2013-01-10 19:12:00,17.8,9.0,30.03,West,280,0.0,0.0,68,0.00,,---,0.00,VWS V14.00,2013-01-11 03:12:00,
2013-01-10 19:17:00,17.3,8.2,30.03,West,280,0.0,2.0,67,0.00,,---,0.00,VWS V14.00,2013-01-11 03:17:00,
2013-01-10 19:22:00,17.2,8.8,30.03,West,280,0.0,0.0,69,0.00,,---,0.00,VWS V14.00,2013-01-11 03:22:00,
2013-01-10 19:27:00,17.0,8.6,30.03,West,280,0.0,2.0,69,0.00,,---,0.00,VWS V14.00,2013-01-11 03:27:00,
2013-01-10 19:32:00,16.7,8.3,30.03,West,280,0.0,0.0,69,0.00,,---,0.00,VWS V14.00,2013-01-11 03:32:00,
2013-01-10 19:37:00,16.5,8.1,30.03,West,280,0.0,0.0,69,0.00,,---,0.00,VWS V14.00,2013-01-11 03:37:00,
2013-01-10 19:42:00,16.2,7.8,30.03,West,280,0.0,2.0,69,0.00,,---,0.00,VWS V14.00,2013-01-11 03:42:00,
2013-01-10 19:47:00,15.6,7.3,30.04,SSW,195,0.0,5.0,69,0.00,,---,0.00,VWS V14.00,2013-01-11 03:47:00,
2013-01-10 19:53:00,15.9,8.2,30.04,SSW,195,0.0,3.0,71,0.00,,---,0.00,VWS V14.00,2013-01-11 03:53:00,
2013-01-10 19:58:00,15.9,7.9,30.04,SSW,195,0.0,3.0,70,0.00,,---,0.00,VWS V14.00,2013-01-11 03:58:00,
2013-01-10 20:03:00,16.1,8.1,30.04,SSW,195,0.0,5.0,70,0.00,,---,0.00,VWS V14.00,2013-01-11 04:03:00,
2013-01-10 20:08:00,16.4,8.3,30.04,SSW,195,0.0,5.0,70,0.00,,---,0.00,VWS V14.00,2013-01-11 04:08:00,
2013-01-10 20:13:00,16.9,9.4,30.04,SSW,195,0.0,0.0,72,0.00,,---,0.00,VWS V14.00,2013-01-11 04:13:00,
2013-01-10 20:18:00,15.9,8.5,30.03,SSW,195,0.0,3.0,72,0.00,,---,0.00,VWS V14.00,2013-01-11 04:18:00,
2013-01-10 20:23:00,15.6,8.5,30.03,SSW,195,0.0,0.0,73,0.00,,---,0.00,VWS V14.00,2013-01-11 04:23:00,
2013-01-10 20:28:00,15.1,7.7,30.03,SSW,195,0.0,1.0,72,0.00,,---,0.00,VWS V14.00,2013-01-11 04:28:00,
2013-01-10 20:34:00,14.6,7.5,30.04,SSW,195,0.0,0.0,73,0.00,,---,0.00,VWS V14.00,2013-01-11 04:34:00,
2013-01-10 20:39:00,14.1,6.8,30.04,SSW,195,0.0,2.0,72,0.00,,---,0.00,VWS V14.00,2013-01-11 04:39:00,
2013-01-10 20:44:00,14.0,7.0,30.04,SSW,195,0.0,0.0,73,0.00,,---,0.00,VWS V14.00,2013-01-11 04:44:00,
2013-01-10 20:49:00,14.0,7.2,30.04,SSW,195,0.0,0.0,74,0.00,,---,0.00,VWS V14.00,2013-01-11 04:49:00,
2013-01-10 20:54:00,13.8,7.1,30.04,SSW,195,2.0,2.0,74,0.00,,---,0.00,VWS V14.00,2013-01-11 04:54:00,
2013-01-10 20:59:00,13.3,6.9,30.04,SSW,195,0.0,2.0,75,0.00,,---,0.00,VWS V14.00,2013-01-11 04:59:00,
2013-01-10 21:02:00,13.1,6.7,30.06,SSW,195,1.0,2.0,75,0.00,,---,0.00,VWS V14.00,2013-01-11 05:02:00,
2013-01-10 21:03:00,12.9,6.5,30.06,SSW,195,0.0,3.0,75,0.00,,---,0.00,VWS V14.00,2013-01-11 05:03:00,
2013-01-10 21:04:00,12.9,6.5,30.06,SSW,195,0.0,3.0,75,0.00,,---,0.00,VWS V14.00,2013-01-11 05:04:00,
2013-01-10 21:05:00,12.9,6.5,30.06,SSW,195,0.0,3.0,75,0.00,,---,0.00,VWS V14.00,2013-01-11 05:05:00,
2013-01-10 21:11:00,12.8,6.7,30.06,SSW,195,1.0,3.0,76,0.00,,---,0.00,VWS V14.00,2013-01-11 05:11:00,
2013-01-10 21:16:00,12.8,6.7,30.05,SSW,195,0.0,3.0,76,0.00,,---,0.00,VWS V14.00,2013-01-11 05:16:00,
2013-01-10 21:21:00,12.1,5.4,30.05,SSW,195,0.0,3.0,74,0.00,,---,0.00,VWS V14.00,2013-01-11 05:21:00,
2013-01-10 21:26:00,11.7,5.6,30.05,SSW,195,0.0,0.0,76,0.00,,---,0.00,VWS V14.00,2013-01-11 05:26:00,
2013-01-10 21:31:00,11.7,5.6,30.06,SSW,195,0.0,0.0,76,0.00,,---,0.00,VWS V14.00,2013-01-11 05:31:00,
2013-01-10 21:36:00,11.7,5.9,30.06,SSW,195,0.0,0.0,77,0.00,,---,0.00,VWS V14.00,2013-01-11 05:36:00,
2013-01-10 21:41:00,11.6,5.5,30.06,SSW,195,0.0,0.0,76,0.00,,---,0.00,VWS V14.00,2013-01-11 05:41:00,
2013-01-10 21:46:00,11.4,5.3,30.06,SSW,195,0.0,0.0,76,0.00,,---,0.00,VWS V14.00,2013-01-11 05:46:00,
2013-01-10 21:51:00,11.4,5.6,30.06,SSW,195,0.0,2.0,77,0.00,,---,0.00,VWS V14.00,2013-01-11 05:51:00,
2013-01-10 21:56:00,11.4,5.9,30.06,SSW,195,0.0,0.0,78,0.00,,---,0.00,VWS V14.00,2013-01-11 05:56:00,
2013-01-10 22:01:00,11.4,5.9,30.06,SSW,195,0.0,0.0,78,0.00,,---,0.00,VWS V14.00,2013-01-11 06:01:00,
2013-01-10 22:06:00,11.4,5.9,30.06,SSW,195,0.0,0.0,78,0.00,,---,0.00,VWS V14.00,2013-01-11 06:06:00,
2013-01-10 22:11:00,11.2,5.4,30.06,SSW,195,0.0,0.0,77,0.00,,---,0.00,VWS V14.00,2013-01-11 06:11:00,
2013-01-10 22:17:00,11.2,5.4,30.07,SSW,195,0.0,1.0,77,0.00,,---,0.00,VWS V14.00,2013-01-11 06:17:00,
2013-01-10 22:22:00,10.9,5.4,30.07,SSW,195,0.0,0.0,78,0.00,,---,0.00,VWS V14.00,2013-01-11 06:22:00,
2013-01-10 22:27:00,10.9,5.4,30.07,SSW,195,0.0,0.0,78,0.00,,---,0.00,VWS V14.00,2013-01-11 06:27:00,
2013-01-10 22:32:00,11.1,5.6,30.07,SSW,195,1.0,1.0,78,0.00,,---,0.00,VWS V14.00,2013-01-11 06:32:00,
2013-01-10 22:37:00,10.9,5.4,30.07,SSW,195,0.0,1.0,78,0.00,,---,0.00,VWS V14.00,2013-01-11 06:37:00,
2013-01-10 22:42:00,10.9,5.4,30.07,SSW,195,0.0,0.0,78,0.00,,---,0.00,VWS V14.00,2013-01-11 06:42:00,
2013-01-10 22:47:00,11.1,4.7,30.04,SSW,195,0.0,0.0,75,0.00,,---,0.00,VWS V14.00,2013-01-11 06:47:00,
2013-01-10 22:52:00,11.2,4.8,30.04,NW,316,0.0,0.0,75,0.00,,---,0.00,VWS V14.00,2013-01-11 06:52:00,
2013-01-10 22:57:00,11.6,5.5,30.04,SSW,195,1.0,1.0,76,0.00,,---,0.00,VWS V14.00,2013-01-11 06:57:00,
2013-01-10 23:02:00,12.1,5.7,30.07,SSW,195,0.0,0.0,75,0.00,,---,0.00,VWS V14.00,2013-01-11 07:02:00,
2013-01-10 23:07:00,12.4,6.0,30.07,SSW,195,0.0,0.0,75,0.00,,---,0.00,VWS V14.00,2013-01-11 07:07:00,
2013-01-10 23:12:00,12.8,6.4,30.07,SSW,195,0.0,0.0,75,0.00,,---,0.00,VWS V14.00,2013-01-11 07:12:00,
2013-01-10 23:17:00,12.9,6.5,30.06,SSW,195,0.0,0.0,75,0.00,,---,0.00,VWS V14.00,2013-01-11 07:17:00,
2013-01-10 23:22:00,12.9,6.2,30.06,SSW,195,2.0,2.0,74,0.00,,---,0.00,VWS V14.00,2013-01-11 07:22:00,
2013-01-10 23:27:00,12.8,6.1,30.06,SSW,195,0.0,2.0,74,0.00,,---,0.00,VWS V14.00,2013-01-11 07:27:00,
2013-01-10 23:32:00,12.8,6.1,30.06,SSW,195,0.0,0.0,74,0.00,,---,0.00,VWS V14.00,2013-01-11 07:32:00,
2013-01-10 23:37:00,12.6,6.2,30.06,SSW,195,0.0,0.0,75,0.00,,---,0.00,VWS V14.00,2013-01-11 07:37:00,
2013-01-10 23:43:00,12.3,5.9,30.06,SSW,195,0.0,0.0,75,0.00,,---,0.00,VWS V14.00,2013-01-11 07:43:00,
2013-01-10 23:48:00,12.1,5.7,30.06,SSW,195,0.0,0.0,75,0.00,,---,0.00,VWS V14.00,2013-01-11 07:48:00,
2013-01-10 23:53:00,12.1,6.0,30.06,SSW,195,0.0,0.0,76,0.00,,---,0.00,VWS V14.00,2013-01-11 07:53:00,
2013-01-10 23:58:00,12.3,6.2,30.06,SSW,195,0.0,1.0,76,0.00,,---,0.00,VWS V14.00,2013-01-11 07:58:00,